Online since October of 2007


Active alerts


No alerts

Bigbaywx more information Bigbaywx


mount mesnard more information Mount Mesnard


visit our other weather sites:

Template documentation
and downloads

And another site


CBI


nearby metar reports

   
KSAW - Sawyer, Michigan
updated: Apr 4 2020 10:48 am
overcast  
overcast  
   wind: nnw 13.8 mph
wind: nnw 13.8 mph
temperature: 28.4°F
wind chill: 17.6°F
dew point: 24.8°F
humidity: 86%
barometer: 30.12 inHg
clouds: overcast
visibility: 10 mi
cloud details: overcast 335 m
KSAW 041448Z 34012KT 10SM OVC011 M02/M04 A3012
KESC - Escanaba, Michigan
updated: Apr 4 2020 10:56 am
overcast  
overcast  
   wind: nw 10.4 mph
wind: nw 10.4 mph
temperature: 32°F
wind chill: 24.8°F
dew point: 28.4°F
humidity: 87%
barometer: 30.14 inHg
clouds: overcast
visibility: 10 mi
cloud details: overcast 305 m
KESC 041456Z AUTO 31009KT 10SM OVC010 00/M02 A3014 RMK AO2 SLP216 60000 T00001017 51019 FZRANO
KIMT - Iron Mountain, MI
updated: Apr 4 2020 10:54 am
overcast  
overcast  
   wind: nnw 13.8 mph
wind: nnw 13.8 mph
temperature: 30.2°F
wind chill: 19.4°F
dew point: 24.8°F
humidity: 80%
barometer: 30.13 inHg
clouds: overcast
visibility: 10 mi
cloud details: overcast 335 m
KIMT 041454Z AUTO 33012KT 10SM OVC011 M01/M04 A3013 RMK AO2 SLP215 T10111039 53015
KGRB - Green Bay, WI
updated: Apr 4 2020 10:53 am
mostly cloudy  
mostly cloudy  
   wind: nw 12.7 mph
wind: nw 12.7 mph
temperature: 37.4°F
wind chill: 28.4°F
dew point: 28.4°F
humidity: 70%
barometer: 30.14 inHg
clouds: mostly cloudy
visibility: 10 mi
cloud details: mostly cloudy 549 m
KGRB 041453Z 31011KT 10SM BKN018 03/M02 A3014 RMK AO2 SLP213 T00281017 51017
KDET - Detroit, MI
updated: Apr 4 2020 10:53 am
mostly cloudy  
mostly cloudy  
   wind: calm
wind: calm
temperature: 48.2°F
dew point: 33.8°F
humidity: 58%
barometer: 30.07 inHg
clouds: mostly cloudy
visibility: 10 mi
cloud details: mostly cloudy 1829 m
KDET 041453Z 00000KT 10SM BKN060 09/01 A3007 RMK AO2 SLP187 T00940011 50003
 

script developed by  Saratoga-weather.org adapted for the template by  Weerstation Leuven

you find our weather info also at:

Weather Underground

midwestern weather network

WeatherlinkIP

Citizen Weather Observer Program (CWOP)

equipment we use:

weather-station
Davis VP2

weather-program
Davis Weatherlink.Com

Davis VP2

Davis Weatherlink.Com